Time;durP1;ratioP1;P1;durP2;ratioP2;P2;SDS_P1;SDS_P2;PMS_P1;PMS_P2;Temp;Humidity;BMP_temperature;BMP_pressure;BME280_temperature;BME280_humidity;BME280_pressure;Samples;Min_cycle;Max_cycle;Signal;HPM_P1;HPM_P2
2022/06/13 00:03:58;;;;;;;7.47;6.63;;;;;;;;;;10447241;28;20475;-93
2022/06/13 00:09:00;;;;;;;8.33;7.43;;;;;;;;;;10450096;28;20848;-94
2022/06/13 00:14:05;;;;;;;8.50;7.30;;;;;;;;;;10451580;28;20438;-92
2022/06/13 00:19:07;;;;;;;8.85;8.05;;;;;;;;;;10448572;28;20907;-92
2022/06/13 00:24:09;;;;;;;9.47;8.50;;;;;;;;;;10461880;28;21192;-92
2022/06/13 00:29:13;;;;;;;9.25;8.35;;;;;;;;;;10432249;28;20411;-92
2022/06/13 00:34:15;;;;;;;10.93;8.70;;;;;;;;;;10445975;28;20764;-91
2022/06/13 00:39:17;;;;;;;9.00;8.02;;;;;;;;;;10452435;28;20408;-91
2022/06/13 00:44:23;;;;;;;9.68;8.25;;;;;;;;;;10447190;28;20407;-93
2022/06/13 00:49:29;;;;;;;9.02;8.13;;;;;;;;;;10437154;28;20421;-93
2022/06/13 00:54:36;;;;;;;9.35;7.70;;;;;;;;;;10431851;28;20412;-92
2022/06/13 00:59:41;;;;;;;8.75;7.72;;;;;;;;;;10378111;28;20451;-92
2022/06/13 01:04:43;;;;;;;9.00;7.87;;;;;;;;;;10366250;28;20442;-92
2022/06/13 01:15:22;;;;;;;9.27;8.30;;;;;;;;;;10381592;28;20474;-93
2022/06/13 01:20:52;;;;;;;10.00;9.02;;;;;;;;;;10418870;28;20494;-92
2022/06/13 01:26:23;;;;;;;10.70;9.60;;;;;;;;;;10414128;28;20419;-90
2022/06/13 01:31:31;;;;;;;10.30;9.13;;;;;;;;;;10323663;28;20405;-93
2022/06/13 01:36:46;;;;;;;10.57;9.30;;;;;;;;;;10419176;28;20407;-94
2022/06/13 01:42:02;;;;;;;10.70;9.63;;;;;;;;;;10403552;28;20906;-92
2022/06/13 01:47:12;;;;;;;11.00;9.90;;;;;;;;;;10405053;28;20517;-92
2022/06/13 01:52:26;;;;;;;9.90;9.00;;;;;;;;;;10388178;28;20911;-92
2022/06/13 01:57:34;;;;;;;9.70;8.68;;;;;;;;;;10426733;28;20450;-92
2022/06/13 02:02:44;;;;;;;11.18;8.45;;;;;;;;;;10435754;28;20482;-91
2022/06/13 02:07:49;;;;;;;9.57;8.68;;;;;;;;;;10446617;28;20426;-92
2022/06/13 02:12:55;;;;;;;9.52;8.73;;;;;;;;;;10446161;28;20479;-91
2022/06/13 02:18:03;;;;;;;10.23;9.15;;;;;;;;;;10448731;28;21114;-92
2022/06/13 02:23:09;;;;;;;10.17;9.27;;;;;;;;;;10452014;28;20408;-92
2022/06/13 02:28:17;;;;;;;9.93;8.60;;;;;;;;;;10452543;28;20427;-92
2022/06/13 02:33:25;;;;;;;9.23;8.38;;;;;;;;;;10446725;28;20413;-91
2022/06/13 02:38:32;;;;;;;10.05;9.15;;;;;;;;;;10440182;28;20472;-92
2022/06/13 02:43:40;;;;;;;9.70;8.60;;;;;;;;;;10446599;28;20414;-91
2022/06/13 02:48:47;;;;;;;9.98;9.07;;;;;;;;;;10452642;28;20484;-91
2022/06/13 02:53:56;;;;;;;10.95;9.10;;;;;;;;;;10452184;28;20410;-93
2022/06/13 02:59:17;;;;;;;9.70;8.80;;;;;;;;;;10451676;28;20507;-91
2022/06/13 03:04:32;;;;;;;9.50;8.60;;;;;;;;;;10451434;28;20880;-91
2022/06/13 03:09:41;;;;;;;10.20;9.13;;;;;;;;;;10437816;28;20519;-92
2022/06/13 03:14:56;;;;;;;9.82;8.82;;;;;;;;;;10440321;28;20714;-92
2022/06/13 03:20:09;;;;;;;10.00;8.90;;;;;;;;;;10451188;28;20410;-92
2022/06/13 03:25:20;;;;;;;9.90;8.67;;;;;;;;;;10451716;28;20892;-92
2022/06/13 03:30:24;;;;;;;9.43;8.52;;;;;;;;;;10463486;28;20465;-92
2022/06/13 03:35:28;;;;;;;9.70;8.70;;;;;;;;;;10437503;28;21261;-92
2022/06/13 03:40:32;;;;;;;10.37;9.27;;;;;;;;;;10451607;28;20491;-91
2022/06/13 03:45:40;;;;;;;13.02;9.70;;;;;;;;;;10450990;28;20951;-91
2022/06/13 03:50:47;;;;;;;10.05;9.05;;;;;;;;;;10433551;28;20420;-91
2022/06/13 03:55:54;;;;;;;10.00;9.07;;;;;;;;;;10450936;28;20404;-92
2022/06/13 04:01:03;;;;;;;12.02;9.50;;;;;;;;;;10477714;28;20395;-91
2022/06/13 04:06:27;;;;;;;11.07;9.98;;;;;;;;;;10474124;28;20420;-92
2022/06/13 04:11:51;;;;;;;10.73;9.70;;;;;;;;;;10449575;28;20431;-91
2022/06/13 04:16:58;;;;;;;11.10;10.07;;;;;;;;;;10435732;28;21054;-92
2022/06/13 04:22:09;;;;;;;11.32;10.23;;;;;;;;;;10425323;28;20492;-91
2022/06/13 04:27:17;;;;;;;11.67;10.47;;;;;;;;;;10456162;28;20916;-92
2022/06/13 04:32:22;;;;;;;12.07;10.20;;;;;;;;;;10450459;28;20412;-92
2022/06/13 04:37:25;;;;;;;11.68;10.48;;;;;;;;;;10428289;28;20496;-92
2022/06/13 04:42:33;;;;;;;12.35;11.07;;;;;;;;;;10454675;28;20496;-91
2022/06/13 04:47:35;;;;;;;12.20;10.90;;;;;;;;;;10447095;28;21166;-91
2022/06/13 04:52:37;;;;;;;11.65;10.38;;;;;;;;;;10484013;28;20479;-91
2022/06/13 04:57:41;;;;;;;11.85;10.50;;;;;;;;;;10444799;28;20486;-91
2022/06/13 05:02:46;;;;;;;12.05;10.90;;;;;;;;;;10466114;28;20505;-91
2022/06/13 05:07:49;;;;;;;12.87;11.07;;;;;;;;;;10447985;28;20458;-94
2022/06/13 05:12:54;;;;;;;13.60;11.80;;;;;;;;;;10485178;28;20410;-94
2022/06/13 05:18:13;;;;;;;15.77;12.38;;;;;;;;;;10487007;28;20447;-95
2022/06/13 05:23:29;;;;;;;16.43;12.30;;;;;;;;;;10472402;28;20911;-94
2022/06/13 05:28:35;;;;;;;14.73;13.07;;;;;;;;;;10494826;28;20423;-94
2022/06/13 05:39:01;;;;;;;19.33;14.85;;;;;;;;;;10473902;28;20451;-94
2022/06/13 05:44:07;;;;;;;17.80;14.87;;;;;;;;;;10475323;28;20404;-94
2022/06/13 05:49:13;;;;;;;18.10;15.10;;;;;;;;;;10452109;28;20444;-94
2022/06/13 05:54:18;;;;;;;19.38;15.65;;;;;;;;;;10482787;28;20432;-95
2022/06/13 05:59:32;;;;;;;17.33;14.90;;;;;;;;;;10489835;28;20391;-93
2022/06/13 06:04:34;;;;;;;17.90;15.20;;;;;;;;;;10494371;28;20409;-92
2022/06/13 06:09:37;;;;;;;16.23;14.52;;;;;;;;;;10483226;28;20433;-94
2022/06/13 06:14:44;;;;;;;16.73;14.27;;;;;;;;;;10470753;28;20411;-94
2022/06/13 06:19:46;;;;;;;15.35;13.75;;;;;;;;;;10444301;28;20889;-93
2022/06/13 06:24:49;;;;;;;16.50;13.98;;;;;;;;;;10458892;28;20445;-94
2022/06/13 06:29:55;;;;;;;15.82;12.80;;;;;;;;;;10464141;28;20419;-94
2022/06/13 06:34:58;;;;;;;14.32;12.48;;;;;;;;;;10454429;28;20407;-94
2022/06/13 06:40:06;;;;;;;14.60;13.00;;;;;;;;;;10470928;28;20406;-95
2022/06/13 06:45:13;;;;;;;13.83;12.40;;;;;;;;;;10457450;28;20403;-94
2022/06/13 06:50:21;;;;;;;13.70;11.77;;;;;;;;;;10461853;28;20415;-94
2022/06/13 07:00:56;;;;;;;13.85;10.68;;;;;;;;;;10452898;28;20386;-93
2022/06/13 07:05:58;;;;;;;13.20;10.60;;;;;;;;;;10459050;28;20423;-95
2022/06/13 07:16:26;;;;;;;12.77;11.10;;;;;;;;;;10460779;28;20434;-94
2022/06/13 07:21:40;;;;;;;16.97;11.73;;;;;;;;;;10473577;28;20420;-96
2022/06/13 07:26:45;;;;;;;13.70;10.23;;;;;;;;;;10471080;28;20402;-94
2022/06/13 07:31:57;;;;;;;12.05;9.65;;;;;;;;;;10474622;28;20408;-94
2022/06/13 07:37:02;;;;;;;10.82;9.50;;;;;;;;;;10486194;28;21000;-95
2022/06/13 07:42:05;;;;;;;9.93;8.70;;;;;;;;;;10480621;28;20417;-80
2022/06/13 07:47:18;;;;;;;9.80;8.30;;;;;;;;;;10468229;28;21002;-94
2022/06/13 07:52:24;;;;;;;8.53;7.73;;;;;;;;;;10449064;28;20427;-95
2022/06/13 07:57:33;;;;;;;9.05;7.80;;;;;;;;;;10447709;28;20394;-95
2022/06/13 08:02:38;;;;;;;8.83;7.93;;;;;;;;;;10451992;28;20435;-95
2022/06/13 08:07:40;;;;;;;8.82;7.93;;;;;;;;;;10461578;28;20409;-96
2022/06/13 08:12:44;;;;;;;10.70;7.47;;;;;;;;;;10467394;28;20562;-94
2022/06/13 08:17:57;;;;;;;7.20;6.50;;;;;;;;;;10468628;28;20397;-96
2022/06/13 08:34:19;;;;;;;10.18;6.70;;;;;;;;;;10474700;28;20708;-96
2022/06/13 08:39:28;;;;;;;9.73;7.18;;;;;;;;;;10470400;28;20416;-95
2022/06/13 08:45:00;;;;;;;8.07;7.27;;;;;;;;;;10463032;28;20420;-95
2022/06/13 08:50:33;;;;;;;11.02;8.00;;;;;;;;;;10470341;28;20464;-95
2022/06/13 08:56:25;;;;;;;10.67;9.07;;;;;;;;;;10435517;28;20409;-94
2022/06/13 09:01:33;;;;;;;7.68;6.80;;;;;;;;;;10402664;28;20430;-95
2022/06/13 09:06:42;;;;;;;9.00;7.35;;;;;;;;;;10412706;28;20457;-94
2022/06/13 09:11:55;;;;;;;9.23;8.18;;;;;;;;;;10416740;28;20454;-92
2022/06/13 09:17:05;;;;;;;9.43;8.10;;;;;;;;;;10412791;28;20417;-96
2022/06/13 09:22:16;;;;;;;9.20;8.00;;;;;;;;;;10415228;28;20482;-95
2022/06/13 09:27:24;;;;;;;10.88;7.57;;;;;;;;;;10412509;28;20432;-95
2022/06/13 09:32:42;;;;;;;10.02;8.50;;;;;;;;;;10401943;28;20413;-95
2022/06/13 09:37:48;;;;;;;8.18;6.50;;;;;;;;;;10413240;28;20418;-95
2022/06/13 09:43:05;;;;;;;10.43;7.35;;;;;;;;;;10411916;28;20456;-96
2022/06/13 09:48:19;;;;;;;7.30;6.43;;;;;;;;;;10421216;28;20419;-95
2022/06/13 09:53:29;;;;;;;8.48;6.35;;;;;;;;;;10416183;28;20455;-91
2022/06/13 09:58:44;;;;;;;9.90;8.13;;;;;;;;;;10447349;28;20453;-91
2022/06/13 10:04:00;;;;;;;7.85;6.85;;;;;;;;;;10449921;28;21084;-91
2022/06/13 10:09:18;;;;;;;8.30;6.78;;;;;;;;;;10441792;28;20551;-91
2022/06/13 10:14:40;;;;;;;6.80;6.07;;;;;;;;;;10435680;28;20488;-92
2022/06/13 10:19:53;;;;;;;8.07;7.23;;;;;;;;;;10467026;28;20493;-91
2022/06/13 10:25:06;;;;;;;5.93;5.22;;;;;;;;;;10443113;28;20401;-94
2022/06/13 10:30:32;;;;;;;6.20;5.65;;;;;;;;;;10448598;28;20424;-91
2022/06/13 10:35:48;;;;;;;7.25;6.10;;;;;;;;;;10436101;28;20475;-92
2022/06/13 10:40:51;;;;;;;10.80;5.72;;;;;;;;;;10441107;28;20816;-94
2022/06/13 10:45:56;;;;;;;8.35;6.45;;;;;;;;;;10440177;28;20450;-93
2022/06/13 10:50:59;;;;;;;6.00;5.40;;;;;;;;;;10442790;28;20846;-93
2022/06/13 10:56:06;;;;;;;6.20;5.60;;;;;;;;;;10443217;28;20423;-92
2022/06/13 11:01:12;;;;;;;5.57;5.03;;;;;;;;;;10432422;28;20433;-93
2022/06/13 11:06:22;;;;;;;5.35;4.85;;;;;;;;;;10436715;28;20428;-94
2022/06/13 11:11:32;;;;;;;4.57;4.05;;;;;;;;;;10452069;28;21067;-93
2022/06/13 11:27:40;;;;;;;4.32;3.92;;;;;;;;;;10425237;28;20484;-87
2022/06/13 11:32:57;;;;;;;4.60;4.20;;;;;;;;;;10445569;22;20471;-85
2022/06/13 11:38:17;;;;;;;4.72;4.18;;;;;;;;;;10462381;28;20403;-84
2022/06/13 11:43:22;;;;;;;4.68;4.28;;;;;;;;;;10471677;28;20409;-84
2022/06/13 11:48:28;;;;;;;4.28;3.90;;;;;;;;;;10476538;28;20432;-84
2022/06/13 11:53:36;;;;;;;6.65;4.20;;;;;;;;;;10470702;28;20581;-84
2022/06/13 11:58:42;;;;;;;6.07;4.45;;;;;;;;;;10473304;28;20424;-83
2022/06/13 12:03:49;;;;;;;4.97;4.35;;;;;;;;;;10474757;28;20418;-84
2022/06/13 12:09:01;;;;;;;5.47;4.50;;;;;;;;;;10472096;28;20860;-83
2022/06/13 12:14:09;;;;;;;5.30;4.80;;;;;;;;;;10474887;28;21042;-84
2022/06/13 12:19:23;;;;;;;7.47;4.95;;;;;;;;;;10470400;28;20407;-83
2022/06/13 12:24:40;;;;;;;4.82;4.40;;;;;;;;;;10473324;28;20414;-83
2022/06/13 12:30:03;;;;;;;7.93;5.33;;;;;;;;;;10476250;28;20422;-83
2022/06/13 12:35:25;;;;;;;5.73;5.23;;;;;;;;;;10470169;28;20822;-83
2022/06/13 12:40:45;;;;;;;5.80;4.80;;;;;;;;;;10466378;28;20796;-82
2022/06/13 12:46:28;;;;;;;5.97;5.38;;;;;;;;;;10464873;28;20398;-83
2022/06/13 12:51:40;;;;;;;6.25;5.05;;;;;;;;;;10458416;28;20426;-83
2022/06/13 12:56:49;;;;;;;5.83;5.10;;;;;;;;;;10469304;28;20416;-82
2022/06/13 13:02:02;;;;;;;5.45;4.55;;;;;;;;;;10470794;28;20769;-84
2022/06/13 13:07:14;;;;;;;5.20;4.70;;;;;;;;;;10474245;28;21221;-83
2022/06/13 13:12:42;;;;;;;6.60;4.72;;;;;;;;;;10473969;28;20414;-82
2022/06/13 13:17:55;;;;;;;5.90;4.70;;;;;;;;;;10467195;28;20403;-85
2022/06/13 13:23:05;;;;;;;4.73;4.30;;;;;;;;;;10470862;28;20418;-85
2022/06/13 13:28:18;;;;;;;4.60;4.13;;;;;;;;;;10472645;28;20415;-84
2022/06/13 13:33:38;;;;;;;4.32;3.63;;;;;;;;;;10460422;28;20422;-83
2022/06/13 13:38:46;;;;;;;4.43;3.47;;;;;;;;;;10458635;28;20501;-82
2022/06/13 13:43:54;;;;;;;4.22;3.90;;;;;;;;;;10472173;28;20893;-84
2022/06/13 13:49:01;;;;;;;4.13;2.97;;;;;;;;;;10472006;28;20425;-83
2022/06/13 13:54:14;;;;;;;3.67;3.00;;;;;;;;;;10472363;28;20466;-82
2022/06/13 13:59:19;;;;;;;3.00;2.80;;;;;;;;;;10466752;28;20465;-82
2022/06/13 14:04:29;;;;;;;4.35;3.10;;;;;;;;;;10465800;28;20777;-78
2022/06/13 14:09:33;;;;;;;4.65;2.72;;;;;;;;;;10457855;28;20788;-82
2022/06/13 14:14:50;;;;;;;3.35;3.05;;;;;;;;;;10475486;28;20414;-82
2022/06/13 14:19:55;;;;;;;4.57;3.10;;;;;;;;;;10471716;28;20511;-80
2022/06/13 14:25:08;;;;;;;3.38;2.85;;;;;;;;;;10473538;28;20920;-84
2022/06/13 14:35:56;;;;;;;3.07;2.87;;;;;;;;;;10473179;28;20773;-84
2022/06/13 14:41:08;;;;;;;4.03;3.13;;;;;;;;;;10461393;28;20404;-84
2022/06/13 14:46:40;;;;;;;3.95;3.10;;;;;;;;;;10466577;28;20433;-83
2022/06/13 14:52:09;;;;;;;3.43;3.13;;;;;;;;;;10469180;28;20513;-84
2022/06/13 15:03:15;;;;;;;5.40;3.30;;;;;;;;;;10591378;27;20384;-83
2022/06/13 15:08:26;;;;;;;3.90;3.50;;;;;;;;;;10583942;28;20412;-84
2022/06/13 15:13:32;;;;;;;4.03;3.35;;;;;;;;;;10575526;27;20475;-85
2022/06/13 15:18:37;;;;;;;3.70;3.03;;;;;;;;;;10580225;27;20410;-85
2022/06/13 15:23:42;;;;;;;3.30;3.00;;;;;;;;;;10601412;27;20402;-86
2022/06/13 15:29:21;;;;;;;3.22;2.92;;;;;;;;;;10599260;27;20402;-86
2022/06/13 15:34:29;;;;;;;3.78;3.22;;;;;;;;;;10598408;27;20914;-86
2022/06/13 15:39:35;;;;;;;3.60;3.00;;;;;;;;;;10601814;27;20422;-86
2022/06/13 15:44:38;;;;;;;3.58;2.90;;;;;;;;;;10601618;27;20738;-86
2022/06/13 15:49:45;;;;;;;3.23;2.70;;;;;;;;;;10599971;27;20451;-86
2022/06/13 15:55:00;;;;;;;3.60;3.00;;;;;;;;;;10599355;27;20402;-86
2022/06/13 16:00:04;;;;;;;4.33;2.83;;;;;;;;;;10601138;27;20468;-87
2022/06/13 16:05:12;;;;;;;3.50;3.05;;;;;;;;;;10598383;27;20402;-87
2022/06/13 16:10:17;;;;;;;3.70;2.80;;;;;;;;;;10593700;28;20478;-86
2022/06/13 16:15:21;;;;;;;2.92;2.47;;;;;;;;;;10568906;27;20403;-86
2022/06/13 16:20:28;;;;;;;3.22;2.90;;;;;;;;;;10568220;28;20423;-86
2022/06/13 16:25:31;;;;;;;6.13;2.78;;;;;;;;;;10569757;28;20473;-87
2022/06/13 16:30:34;;;;;;;3.22;2.70;;;;;;;;;;10569800;28;20760;-87
2022/06/13 16:35:43;;;;;;;5.05;2.97;;;;;;;;;;10568132;28;20490;-87
2022/06/13 16:40:48;;;;;;;3.20;2.70;;;;;;;;;;10570111;28;20592;-87
2022/06/13 16:45:57;;;;;;;4.50;2.88;;;;;;;;;;10564204;28;20398;-87
2022/06/13 16:51:07;;;;;;;3.05;2.83;;;;;;;;;;10568159;28;20413;-86
2022/06/13 16:56:15;;;;;;;3.70;2.60;;;;;;;;;;10568748;28;20478;-87
2022/06/13 17:01:18;;;;;;;3.03;2.50;;;;;;;;;;10566681;28;20414;-86
2022/06/13 17:06:28;;;;;;;5.22;2.72;;;;;;;;;;10567124;28;20394;-86
2022/06/13 17:12:04;;;;;;;3.45;2.40;;;;;;;;;;10568621;28;20399;-86
2022/06/13 17:17:08;;;;;;;5.05;2.60;;;;;;;;;;10563560;28;20436;-86
2022/06/13 17:22:12;;;;;;;4.20;2.43;;;;;;;;;;10566734;28;20427;-87
2022/06/13 17:32:33;;;;;;;4.72;2.67;;;;;;;;;;10562446;27;20928;-86
2022/06/13 17:37:37;;;;;;;5.05;2.38;;;;;;;;;;10567569;28;20477;-87
2022/06/13 17:42:39;;;;;;;3.77;2.40;;;;;;;;;;10567011;28;20442;-86
2022/06/13 17:47:42;;;;;;;4.25;3.10;;;;;;;;;;10564441;27;20407;-87
2022/06/13 17:52:46;;;;;;;2.85;2.20;;;;;;;;;;10566188;28;20394;-86
2022/06/13 17:57:48;;;;;;;3.50;2.40;;;;;;;;;;10566224;28;20424;-86
2022/06/13 18:02:54;;;;;;;4.67;2.40;;;;;;;;;;10558959;28;20433;-87
2022/06/13 18:07:58;;;;;;;5.15;2.60;;;;;;;;;;10565011;28;20896;-87
2022/06/13 18:13:00;;;;;;;3.53;2.45;;;;;;;;;;10565958;28;20405;-86
2022/06/13 18:18:03;;;;;;;3.03;2.72;;;;;;;;;;10562676;28;20433;-87
2022/06/13 18:23:06;;;;;;;4.53;3.03;;;;;;;;;;10565462;28;20476;-84
2022/06/13 18:28:08;;;;;;;4.57;2.50;;;;;;;;;;10565382;28;20434;-84
2022/06/13 18:33:10;;;;;;;4.80;2.63;;;;;;;;;;10561994;28;20406;-84
2022/06/13 18:38:14;;;;;;;4.03;2.72;;;;;;;;;;10565327;28;20466;-84
2022/06/13 18:43:17;;;;;;;3.87;2.57;;;;;;;;;;10565042;28;20414;-86
2022/06/13 18:48:19;;;;;;;3.45;2.60;;;;;;;;;;10557712;28;20517;-86
2022/06/13 18:53:22;;;;;;;4.57;2.88;;;;;;;;;;10560661;28;20485;-86
2022/06/13 18:58:24;;;;;;;4.90;3.13;;;;;;;;;;10565532;28;21020;-86
2022/06/13 19:03:33;;;;;;;5.85;2.72;;;;;;;;;;10561401;28;20701;-86
2022/06/13 19:08:37;;;;;;;4.43;3.20;;;;;;;;;;10564383;28;20409;-87
2022/06/13 19:13:40;;;;;;;3.63;2.92;;;;;;;;;;10564024;28;20757;-86
2022/06/13 19:18:43;;;;;;;3.85;2.42;;;;;;;;;;10560862;28;20402;-86
2022/06/13 19:23:47;;;;;;;5.10;3.05;;;;;;;;;;10564676;28;20413;-86
2022/06/13 19:28:53;;;;;;;5.10;2.85;;;;;;;;;;10564012;28;20878;-86
2022/06/13 19:33:55;;;;;;;6.13;3.10;;;;;;;;;;10557187;28;20487;-86
2022/06/13 19:39:01;;;;;;;3.47;3.17;;;;;;;;;;10564029;28;20493;-86
2022/06/13 19:44:04;;;;;;;5.40;3.20;;;;;;;;;;10564334;28;20489;-86
2022/06/13 19:49:06;;;;;;;4.57;3.13;;;;;;;;;;10567202;28;20398;-86
2022/06/13 19:54:10;;;;;;;3.95;3.30;;;;;;;;;;10571439;28;20493;-86
2022/06/13 19:59:14;;;;;;;4.35;3.28;;;;;;;;;;10571284;28;20505;-86
2022/06/13 20:04:16;;;;;;;5.00;3.43;;;;;;;;;;10568395;27;20430;-86
2022/06/13 20:09:19;;;;;;;4.13;3.30;;;;;;;;;;10571245;28;20401;-86
2022/06/13 20:14:21;;;;;;;4.70;3.57;;;;;;;;;;10570564;28;20486;-86
2022/06/13 20:19:26;;;;;;;7.20;3.70;;;;;;;;;;10562906;27;20712;-86
2022/06/13 20:24:29;;;;;;;4.45;3.70;;;;;;;;;;10570020;28;21062;-86
2022/06/13 20:29:31;;;;;;;4.80;3.75;;;;;;;;;;10570461;28;20399;-86
2022/06/13 20:34:36;;;;;;;6.20;3.80;;;;;;;;;;10566127;28;20399;-86
2022/06/13 20:39:42;;;;;;;6.95;3.83;;;;;;;;;;10568044;28;20435;-86
2022/06/13 20:44:49;;;;;;;7.33;4.57;;;;;;;;;;10569624;28;20387;-86
2022/06/13 20:49:53;;;;;;;7.10;5.07;;;;;;;;;;10568391;28;20514;-86
2022/06/13 20:54:56;;;;;;;10.18;5.20;;;;;;;;;;10565395;28;20402;-86
2022/06/13 20:59:58;;;;;;;9.10;5.55;;;;;;;;;;10568763;28;20498;-86
2022/06/13 21:05:00;;;;;;;8.10;4.93;;;;;;;;;;10565957;28;20877;-86
2022/06/13 21:10:07;;;;;;;9.18;5.40;;;;;;;;;;10568721;28;20848;-86
2022/06/13 21:15:13;;;;;;;7.47;5.80;;;;;;;;;;10568201;28;20394;-86
2022/06/13 21:20:16;;;;;;;9.10;6.68;;;;;;;;;;10565144;28;20418;-88
2022/06/13 21:25:22;;;;;;;8.48;6.57;;;;;;;;;;10568142;27;20421;-86
2022/06/13 21:30:24;;;;;;;6.93;5.97;;;;;;;;;;10575693;27;20421;-87
2022/06/13 21:35:26;;;;;;;7.53;6.03;;;;;;;;;;10589502;27;20416;-87
2022/06/13 21:40:31;;;;;;;7.93;5.70;;;;;;;;;;10586668;27;20520;-86
2022/06/13 21:45:34;;;;;;;6.00;5.40;;;;;;;;;;10589223;27;20464;-87
2022/06/13 21:50:40;;;;;;;8.67;5.90;;;;;;;;;;10592957;27;20947;-85
2022/06/13 21:55:43;;;;;;;6.35;5.70;;;;;;;;;;10580200;27;20398;-87
2022/06/13 22:00:45;;;;;;;7.03;6.40;;;;;;;;;;10568399;27;20415;-87
2022/06/13 22:05:48;;;;;;;7.00;6.30;;;;;;;;;;10563237;27;20474;-87
2022/06/13 22:10:52;;;;;;;8.45;6.32;;;;;;;;;;10560738;27;20475;-87
2022/06/13 22:15:53;;;;;;;7.30;6.60;;;;;;;;;;10566968;27;20761;-87
2022/06/13 22:20:56;;;;;;;7.53;6.83;;;;;;;;;;10562326;27;20418;-87
2022/06/13 22:26:00;;;;;;;6.97;6.33;;;;;;;;;;10564914;28;20408;-87
2022/06/13 22:31:01;;;;;;;6.78;6.15;;;;;;;;;;10565562;28;20927;-87
2022/06/13 22:36:04;;;;;;;7.07;6.20;;;;;;;;;;10566693;28;20513;-87
2022/06/13 22:41:07;;;;;;;6.57;5.90;;;;;;;;;;10568295;28;20911;-87
2022/06/13 22:46:09;;;;;;;8.00;5.50;;;;;;;;;;10567429;28;20394;-87
2022/06/13 22:51:16;;;;;;;6.20;5.55;;;;;;;;;;10564604;28;20489;-87
2022/06/13 22:56:20;;;;;;;6.10;5.50;;;;;;;;;;10566824;28;20403;-87
2022/06/13 23:01:21;;;;;;;5.85;5.35;;;;;;;;;;10566967;28;20411;-87
2022/06/13 23:06:23;;;;;;;5.68;5.18;;;;;;;;;;10565309;28;20888;-87
2022/06/13 23:11:27;;;;;;;6.15;5.55;;;;;;;;;;10567861;28;20507;-87
2022/06/13 23:16:29;;;;;;;7.22;5.78;;;;;;;;;;10563255;28;20442;-86
2022/06/13 23:21:31;;;;;;;6.35;5.80;;;;;;;;;;10567951;28;20410;-87
2022/06/13 23:26:34;;;;;;;6.28;5.75;;;;;;;;;;10576804;28;20866;-87
2022/06/13 23:31:36;;;;;;;6.95;6.25;;;;;;;;;;10575500;28;20477;-87
2022/06/13 23:36:40;;;;;;;6.43;5.90;;;;;;;;;;10573561;28;20549;-87
2022/06/13 23:41:43;;;;;;;5.90;5.40;;;;;;;;;;10570917;28;20497;-87
2022/06/13 23:46:45;;;;;;;6.50;5.13;;;;;;;;;;10568242;27;20475;-86
2022/06/13 23:51:46;;;;;;;5.50;5.00;;;;;;;;;;10574985;28;20399;-87
2022/06/13 23:56:50;;;;;;;5.53;5.10;;;;;;;;;;10576028;28;20404;-87
